Time;durP1;ratioP1;P1;durP2;ratioP2;P2;SDS_P1;SDS_P2;PMS_P1;PMS_P2;Temp;Humidity;BMP_temperature;BMP_pressure;BME280_temperature;BME280_humidity;BME280_pressure;Samples;Min_cycle;Max_cycle;Signal;HPM_P1;HPM_P2
2022/12/07 00:00:54;;;;;;;22.30;17.02;;;4.70;99.90;;;;;;5018043;28;20182;-89
2022/12/07 00:03:20;;;;;;;23.08;17.83;;;4.70;99.90;;;;;;5017459;28;20198;-89
2022/12/07 00:05:45;;;;;;;23.20;16.53;;;4.80;99.90;;;;;;5000899;28;20645;-89
2022/12/07 00:08:11;;;;;;;22.50;18.30;;;4.70;99.90;;;;;;5016747;28;20229;-89
2022/12/07 00:10:36;;;;;;;25.10;20.17;;;4.70;99.90;;;;;;5016796;28;20536;-89
2022/12/07 00:13:02;;;;;;;27.23;18.53;;;4.70;99.90;;;;;;5017142;28;20170;-89
2022/12/07 00:15:28;;;;;;;26.20;19.93;;;4.70;99.90;;;;;;5000192;28;20239;-89
2022/12/07 00:17:53;;;;;;;27.00;19.43;;;4.70;99.90;;;;;;5016860;28;20521;-89
2022/12/07 00:20:19;;;;;;;25.60;18.67;;;4.70;99.90;;;;;;4984520;28;20178;-89
2022/12/07 00:22:44;;;;;;;23.10;17.47;;;4.70;99.90;;;;;;5016703;28;20189;-89
2022/12/07 00:25:10;;;;;;;22.90;18.10;;;4.70;99.90;;;;;;5016799;28;20231;-89
2022/12/07 00:27:35;;;;;;;28.37;19.37;;;4.70;99.90;;;;;;5016951;28;20214;-89
2022/12/07 00:30:01;;;;;;;21.57;17.40;;;4.80;99.90;;;;;;5017057;28;20179;-89
2022/12/07 00:32:27;;;;;;;28.93;20.20;;;4.70;99.90;;;;;;5016804;28;20187;-88
2022/12/07 00:34:52;;;;;;;24.03;17.97;;;4.80;99.90;;;;;;5000703;28;20206;-89
2022/12/07 00:37:18;;;;;;;25.80;17.00;;;4.80;99.90;;;;;;5016670;28;20185;-89
2022/12/07 00:39:45;;;;;;;24.90;19.07;;;4.80;99.90;;;;;;5034993;28;20182;-89
2022/12/07 00:42:10;;;;;;;29.15;19.75;;;4.80;99.90;;;;;;5034895;28;20181;-89
2022/12/07 00:44:36;;;;;;;25.67;20.70;;;4.80;99.90;;;;;;5001693;28;20187;-89
2022/12/07 00:47:02;;;;;;;28.93;20.83;;;4.70;99.90;;;;;;5035521;28;20185;-89
2022/12/07 00:49:27;;;;;;;29.23;19.90;;;4.70;99.90;;;;;;5001054;28;20217;-89
2022/12/07 00:51:53;;;;;;;25.17;18.37;;;4.80;99.90;;;;;;5035647;28;20208;-89
2022/12/07 00:54:18;;;;;;;27.20;20.53;;;4.70;99.90;;;;;;5017796;28;20190;-90
2022/12/07 00:56:44;;;;;;;20.37;16.40;;;4.80;99.90;;;;;;5035874;28;20242;-90
2022/12/07 00:59:13;;;;;;;22.03;17.77;;;4.80;99.90;;;;;;5001084;28;20273;-89
2022/12/07 01:01:39;;;;;;;20.30;16.88;;;4.80;99.90;;;;;;5021801;28;20213;-90
2022/12/07 01:04:05;;;;;;;30.13;18.30;;;4.80;99.90;;;;;;5021514;28;20192;-89
2022/12/07 01:06:31;;;;;;;21.17;18.27;;;4.80;99.90;;;;;;5038614;28;20201;-90
2022/12/07 01:08:57;;;;;;;30.57;20.73;;;4.80;99.90;;;;;;5021042;28;20237;-89
2022/12/07 01:11:25;;;;;;;23.88;18.70;;;4.80;99.90;;;;;;5020822;28;20196;-89
2022/12/07 01:13:52;;;;;;;25.20;18.95;;;4.90;99.90;;;;;;5038887;28;20174;-89
2022/12/07 01:16:19;;;;;;;27.75;21.20;;;4.80;99.90;;;;;;5038281;28;20261;-89
2022/12/07 01:18:48;;;;;;;27.33;19.33;;;4.80;99.90;;;;;;5021082;28;20219;-89
2022/12/07 01:21:23;;;;;;;28.27;20.55;;;4.80;99.90;;;;;;5038806;28;20176;-89
2022/12/07 01:23:48;;;;;;;27.98;17.67;;;4.90;99.90;;;;;;5038945;28;20166;-89
2022/12/07 01:26:17;;;;;;;28.70;21.60;;;4.80;99.90;;;;;;5020819;28;20243;-89
2022/12/07 01:28:43;;;;;;;29.33;20.65;;;4.80;99.90;;;;;;5038729;28;20468;-89
2022/12/07 01:31:17;;;;;;;31.98;20.88;;;4.80;99.90;;;;;;5020870;28;20186;-89
2022/12/07 01:33:45;;;;;;;30.50;21.20;;;4.80;99.90;;;;;;5019974;28;20202;-89
2022/12/07 01:36:19;;;;;;;27.88;20.88;;;4.80;99.90;;;;;;5037689;28;20183;-88
2022/12/07 01:38:46;;;;;;;27.00;20.23;;;4.80;99.90;;;;;;5019925;28;20189;-88
2022/12/07 01:41:13;;;;;;;29.70;20.38;;;4.80;99.90;;;;;;5019703;28;20178;-89
2022/12/07 01:44:10;;;;;;;32.53;21.58;;;4.80;99.90;;;;;;5019585;28;20182;-89
2022/12/07 01:46:36;;;;;;;28.48;20.63;;;4.80;99.90;;;;;;5037372;28;20249;-89
2022/12/07 01:49:07;;;;;;;32.40;22.17;;;4.70;99.90;;;;;;5037005;28;20324;-89
2022/12/07 01:51:34;;;;;;;28.67;20.35;;;4.70;99.90;;;;;;5036859;28;20547;-89
2022/12/07 01:54:00;;;;;;;27.30;19.52;;;4.80;99.90;;;;;;5003292;28;20285;-89
2022/12/07 01:56:29;;;;;;;24.85;18.98;;;4.80;99.90;;;;;;5018938;28;20200;-89
2022/12/07 01:58:55;;;;;;;28.20;20.08;;;4.80;99.90;;;;;;5019711;28;20190;-90
2022/12/07 02:01:21;;;;;;;25.08;18.75;;;4.80;99.90;;;;;;5002735;28;20186;-89
2022/12/07 02:03:48;;;;;;;27.70;19.45;;;4.80;99.90;;;;;;5018832;28;20205;-90
2022/12/07 02:06:18;;;;;;;31.85;20.70;;;4.80;99.90;;;;;;5018677;28;20192;-89
2022/12/07 02:08:45;;;;;;;26.52;19.98;;;4.80;99.90;;;;;;5036305;28;20226;-90
2022/12/07 02:11:11;;;;;;;24.85;18.67;;;4.80;99.90;;;;;;5002144;28;20186;-89
2022/12/07 02:13:39;;;;;;;26.20;21.00;;;4.80;99.90;;;;;;5002300;28;20182;-89
2022/12/07 02:16:23;;;;;;;23.58;18.65;;;4.80;99.90;;;;;;5036241;28;20522;-89
2022/12/07 02:19:15;;;;;;;29.65;20.58;;;4.70;99.90;;;;;;5036550;28;20221;-89
2022/12/07 02:21:52;;;;;;;24.77;17.70;;;4.70;99.90;;;;;;5035241;28;20190;-88
2022/12/07 02:24:30;;;;;;;23.67;18.77;;;4.70;99.90;;;;;;5036158;28;20170;-89
2022/12/07 02:27:33;;;;;;;26.33;19.80;;;4.70;99.90;;;;;;5018411;28;20181;-89
2022/12/07 02:30:11;;;;;;;23.73;18.77;;;4.70;99.90;;;;;;5035804;28;20265;-89
2022/12/07 02:33:00;;;;;;;28.55;19.90;;;4.80;99.90;;;;;;5018344;28;20577;-89
2022/12/07 02:35:48;;;;;;;26.90;20.13;;;4.70;99.90;;;;;;5018006;28;20178;-89
2022/12/07 02:38:19;;;;;;;28.23;20.45;;;4.70;99.90;;;;;;5018343;28;20210;-87
2022/12/07 02:40:55;;;;;;;24.50;19.45;;;4.70;99.90;;;;;;5035868;28;20185;-89
2022/12/07 02:43:27;;;;;;;25.33;17.60;;;4.70;99.90;;;;;;5035764;28;20641;-89
2022/12/07 02:46:02;;;;;;;28.85;20.05;;;4.70;99.90;;;;;;5035676;28;20531;-89
2022/12/07 02:48:28;;;;;;;28.42;20.13;;;4.70;99.90;;;;;;5035593;28;20205;-89
2022/12/07 02:50:54;;;;;;;29.65;21.48;;;4.70;99.90;;;;;;5018346;28;20189;-89
2022/12/07 02:53:33;;;;;;;25.65;20.60;;;4.70;99.90;;;;;;5035796;28;20175;-89
2022/12/07 02:56:08;;;;;;;25.95;20.20;;;4.70;99.90;;;;;;5035921;28;20534;-89
2022/12/07 02:58:59;;;;;;;29.83;20.95;;;4.70;99.90;;;;;;5035545;28;20244;-89
2022/12/07 03:01:47;;;;;;;28.15;18.77;;;4.70;99.90;;;;;;5017429;28;20182;-88
2022/12/07 03:04:38;;;;;;;22.90;18.75;;;4.70;99.90;;;;;;5035447;28;20642;-89
2022/12/07 03:07:16;;;;;;;30.67;19.70;;;4.80;99.90;;;;;;5017825;28;20226;-89
2022/12/07 03:10:28;;;;;;;26.77;19.00;;;4.70;99.90;;;;;;5017797;28;20185;-89
2022/12/07 03:13:25;;;;;;;27.60;19.88;;;4.70;99.90;;;;;;5015744;28;20228;-89
2022/12/07 03:16:07;;;;;;;30.00;20.00;;;4.70;99.90;;;;;;5017911;28;20170;-89
2022/12/07 03:18:43;;;;;;;28.42;20.80;;;4.70;99.90;;;;;;5034968;28;20162;-89
2022/12/07 03:21:15;;;;;;;29.77;21.80;;;4.70;99.90;;;;;;5035571;28;20193;-89
2022/12/07 03:23:43;;;;;;;31.13;18.75;;;4.70;99.90;;;;;;5035386;28;20168;-89
2022/12/07 03:26:13;;;;;;;25.30;17.15;;;4.70;99.90;;;;;;5035945;28;20181;-89
2022/12/07 03:28:45;;;;;;;31.55;22.48;;;4.60;99.90;;;;;;5018752;28;20685;-89
2022/12/07 03:31:15;;;;;;;25.38;20.38;;;4.70;99.90;;;;;;5036347;28;20171;-89
2022/12/07 03:33:45;;;;;;;27.35;21.42;;;4.60;99.90;;;;;;5035995;28;20181;-89
2022/12/07 03:36:27;;;;;;;31.15;21.75;;;4.70;99.90;;;;;;5036467;28;20614;-89
2022/12/07 03:39:27;;;;;;;33.13;22.50;;;4.70;99.90;;;;;;5018170;28;20225;-89
2022/12/07 03:41:54;;;;;;;30.88;20.98;;;4.70;99.90;;;;;;5036056;28;20175;-89
2022/12/07 03:44:21;;;;;;;28.35;19.75;;;4.70;99.90;;;;;;5001040;28;20657;-88
2022/12/07 03:47:02;;;;;;;31.05;21.80;;;4.60;99.90;;;;;;5002052;28;20520;-89
2022/12/07 03:49:33;;;;;;;28.38;21.33;;;4.70;99.90;;;;;;5017791;28;20634;-89
2022/12/07 03:52:20;;;;;;;32.08;21.45;;;4.70;99.90;;;;;;5017837;28;20186;-89
2022/12/07 03:55:01;;;;;;;28.63;21.50;;;4.70;99.90;;;;;;5035405;28;20543;-89
2022/12/07 03:57:29;;;;;;;31.40;21.45;;;4.70;99.90;;;;;;5017949;28;20534;-89
2022/12/07 03:59:56;;;;;;;26.67;20.60;;;4.60;99.90;;;;;;5035459;28;20213;-89
2022/12/07 04:02:24;;;;;;;34.95;20.50;;;4.60;99.90;;;;;;5017354;28;20582;-89
2022/12/07 04:04:50;;;;;;;27.33;21.92;;;4.60;99.90;;;;;;5034841;28;20170;-89
2022/12/07 04:07:16;;;;;;;29.23;21.23;;;4.60;99.90;;;;;;5016726;28;20238;-89
2022/12/07 04:09:41;;;;;;;28.53;19.77;;;4.60;99.90;;;;;;5000686;28;20203;-89
2022/12/07 04:12:07;;;;;;;28.97;20.83;;;4.60;99.90;;;;;;5000635;28;20956;-89
2022/12/07 04:14:33;;;;;;;34.10;21.53;;;4.50;99.90;;;;;;5000558;28;20190;-89
2022/12/07 04:16:59;;;;;;;31.90;22.77;;;4.60;99.90;;;;;;5000702;28;20561;-89
2022/12/07 04:19:27;;;;;;;32.13;22.13;;;4.50;99.90;;;;;;5016722;28;20268;-87
2022/12/07 04:21:54;;;;;;;31.40;20.38;;;4.50;99.90;;;;;;5017044;28;20182;-89
2022/12/07 04:24:20;;;;;;;27.88;21.05;;;4.50;99.90;;;;;;5017304;28;20181;-88
2022/12/07 04:26:46;;;;;;;26.27;19.30;;;4.60;99.90;;;;;;5034714;28;20188;-89
2022/12/07 04:29:13;;;;;;;31.73;20.48;;;4.60;99.90;;;;;;5034375;28;20198;-89
2022/12/07 04:31:39;;;;;;;30.50;21.80;;;4.60;99.90;;;;;;5017057;28;20198;-89
2022/12/07 04:34:06;;;;;;;27.70;19.58;;;4.60;99.90;;;;;;5034505;28;20205;-89
2022/12/07 04:36:32;;;;;;;30.33;20.05;;;4.60;99.90;;;;;;5020752;28;20522;-89
2022/12/07 04:38:58;;;;;;;30.15;21.42;;;4.60;99.90;;;;;;5020777;28;20699;-89
2022/12/07 04:41:27;;;;;;;33.20;22.00;;;4.60;99.90;;;;;;5020605;28;20187;-89
2022/12/07 04:43:58;;;;;;;27.98;20.17;;;4.60;99.90;;;;;;5004820;28;20188;-89
2022/12/07 04:46:25;;;;;;;27.50;21.33;;;4.50;99.90;;;;;;5038107;28;20186;-88
2022/12/07 04:48:52;;;;;;;23.70;19.70;;;4.50;99.90;;;;;;5020374;28;20615;-89
2022/12/07 04:51:23;;;;;;;36.03;20.13;;;4.50;99.90;;;;;;5020419;28;20186;-88
2022/12/07 04:53:50;;;;;;;30.55;22.08;;;4.40;99.90;;;;;;5020264;28;20258;-88
2022/12/07 04:56:16;;;;;;;35.03;20.35;;;4.40;99.90;;;;;;5020283;28;20339;-88
2022/12/07 04:58:43;;;;;;;26.65;19.40;;;4.30;99.90;;;;;;5037441;28;20185;-88
2022/12/07 05:01:09;;;;;;;28.52;21.13;;;4.30;99.90;;;;;;5039624;28;20209;-89
2022/12/07 05:03:36;;;;;;;27.57;20.93;;;4.20;99.90;;;;;;5037914;28;20178;-87
2022/12/07 05:06:02;;;;;;;34.13;21.77;;;4.20;99.90;;;;;;5004001;28;20190;-87
2022/12/07 05:08:27;;;;;;;28.05;21.13;;;4.30;99.90;;;;;;5038022;28;20253;-87
2022/12/07 05:10:53;;;;;;;30.07;23.13;;;4.30;99.90;;;;;;5037964;28;20178;-88
2022/12/07 05:13:19;;;;;;;26.97;19.50;;;4.30;99.90;;;;;;5020534;28;20179;-88
2022/12/07 05:15:44;;;;;;;28.00;20.43;;;4.30;99.90;;;;;;5020176;28;20281;-87
2022/12/07 05:18:12;;;;;;;26.73;19.20;;;4.30;99.90;;;;;;5004245;28;20577;-87
2022/12/07 05:20:41;;;;;;;30.50;20.23;;;4.30;99.90;;;;;;5004137;28;20186;-87
2022/12/07 05:23:07;;;;;;;30.10;22.17;;;4.30;99.90;;;;;;5037766;28;20253;-87
2022/12/07 05:25:33;;;;;;;29.23;19.47;;;4.30;99.90;;;;;;5037402;28;20253;-87
2022/12/07 05:27:58;;;;;;;32.60;22.13;;;4.30;99.90;;;;;;5003535;28;20221;-87
2022/12/07 05:30:25;;;;;;;30.33;20.93;;;4.30;99.90;;;;;;5019889;28;20634;-86
2022/12/07 05:32:50;;;;;;;32.22;21.92;;;4.20;99.90;;;;;;5037856;28;20177;-87
2022/12/07 05:35:17;;;;;;;31.80;20.70;;;4.20;99.90;;;;;;5037518;28;20181;-87
2022/12/07 05:37:43;;;;;;;37.53;21.67;;;4.30;99.90;;;;;;5003182;28;20837;-87
2022/12/07 05:40:09;;;;;;;36.37;21.13;;;4.30;99.90;;;;;;5037695;28;20194;-87
2022/12/07 05:42:35;;;;;;;33.08;21.67;;;4.20;99.90;;;;;;5003078;28;20178;-87
2022/12/07 05:45:00;;;;;;;30.63;22.97;;;4.30;99.90;;;;;;5019772;28;20277;-86
2022/12/07 05:47:26;;;;;;;35.07;22.47;;;4.20;99.90;;;;;;5002645;28;20182;-87
2022/12/07 05:49:52;;;;;;;36.30;21.10;;;4.20;99.90;;;;;;5037416;28;20209;-87
2022/12/07 05:52:17;;;;;;;31.57;22.07;;;4.10;99.90;;;;;;5037071;28;20417;-87
2022/12/07 05:54:43;;;;;;;33.87;22.10;;;4.20;99.90;;;;;;5019599;28;20564;-86
2022/12/07 05:57:09;;;;;;;30.13;22.33;;;4.20;99.90;;;;;;5037168;28;20269;-87
2022/12/07 05:59:34;;;;;;;34.00;22.10;;;4.20;99.90;;;;;;5019490;28;20186;-88
2022/12/07 06:02:06;;;;;;;35.43;23.03;;;4.10;99.90;;;;;;5037508;28;20455;-87
2022/12/07 06:04:35;;;;;;;33.40;22.83;;;4.10;99.90;;;;;;5036537;28;20159;-86
2022/12/07 06:07:01;;;;;;;30.35;23.17;;;4.10;99.90;;;;;;5036946;28;20226;-87
2022/12/07 06:09:27;;;;;;;30.20;21.50;;;4.10;99.90;;;;;;5019068;28;20316;-86
2022/12/07 06:14:38;;;;;;;32.03;22.15;;;4.00;99.90;;;;;;5036742;28;20193;-87
2022/12/07 06:17:04;;;;;;;36.17;21.37;;;4.10;99.90;;;;;;5019325;28;20174;-87
2022/12/07 06:19:29;;;;;;;27.50;20.73;;;4.00;99.90;;;;;;5002637;28;20433;-86
2022/12/07 06:21:55;;;;;;;25.83;19.20;;;4.00;99.90;;;;;;5036906;28;20187;-87
2022/12/07 06:24:21;;;;;;;27.90;19.00;;;4.00;99.90;;;;;;5036417;28;20549;-87
2022/12/07 06:26:47;;;;;;;30.63;19.35;;;4.10;99.90;;;;;;5036558;28;20265;-87
2022/12/07 06:29:13;;;;;;;26.30;20.80;;;4.10;99.90;;;;;;5002078;28;20368;-87
2022/12/07 06:31:38;;;;;;;25.70;19.30;;;4.10;99.90;;;;;;5036354;28;20174;-87
2022/12/07 06:34:08;;;;;;;29.80;19.10;;;4.10;99.90;;;;;;5002276;28;20795;-87
2022/12/07 06:36:34;;;;;;;24.40;19.38;;;4.20;99.90;;;;;;5018196;28;20440;-87
2022/12/07 06:38:59;;;;;;;27.50;21.17;;;4.10;99.90;;;;;;5018913;28;20183;-87
2022/12/07 06:41:25;;;;;;;26.33;19.10;;;4.20;99.90;;;;;;5036204;28;20630;-88
2022/12/07 06:43:50;;;;;;;24.83;18.43;;;4.10;99.90;;;;;;5001848;28;20214;-88
2022/12/07 06:46:16;;;;;;;26.80;20.70;;;4.10;99.90;;;;;;5018671;28;20184;-87
2022/12/07 06:48:42;;;;;;;28.75;19.27;;;4.20;99.90;;;;;;5035592;28;20206;-87
2022/12/07 06:51:09;;;;;;;23.33;17.30;;;4.20;99.90;;;;;;5018923;28;20551;-87
2022/12/07 06:53:35;;;;;;;27.30;17.65;;;4.10;99.90;;;;;;5034109;28;20184;-87
2022/12/07 06:56:01;;;;;;;24.48;18.45;;;4.20;99.90;;;;;;5038607;28;20178;-88
2022/12/07 06:58:27;;;;;;;30.67;19.37;;;4.10;99.90;;;;;;5037475;28;20615;-87
2022/12/07 07:00:53;;;;;;;23.40;16.63;;;4.20;99.90;;;;;;5038056;28;20610;-88
2022/12/07 07:03:19;;;;;;;26.37;18.77;;;4.20;99.90;;;;;;5048678;28;20181;-88
2022/12/07 07:05:45;;;;;;;23.35;16.92;;;4.20;99.90;;;;;;5043850;28;20818;-87
2022/12/07 07:08:11;;;;;;;23.60;17.07;;;4.20;99.90;;;;;;5001239;28;20238;-88
2022/12/07 07:10:37;;;;;;;21.40;16.05;;;4.20;99.90;;;;;;5035967;28;20644;-87
2022/12/07 07:13:03;;;;;;;25.33;17.80;;;4.10;99.90;;;;;;5035562;28;20216;-88
2022/12/07 07:15:29;;;;;;;26.98;16.67;;;4.10;99.90;;;;;;5035756;28;20236;-87
2022/12/07 07:17:55;;;;;;;22.90;16.40;;;4.10;99.90;;;;;;5035724;28;20178;-87
2022/12/07 07:20:21;;;;;;;25.03;18.33;;;4.20;99.90;;;;;;5035414;28;20186;-88
2022/12/07 07:22:46;;;;;;;24.20;17.17;;;4.20;99.90;;;;;;5017841;28;20533;-87
2022/12/07 07:25:12;;;;;;;23.27;17.40;;;4.10;99.90;;;;;;5001637;28;20265;-88
2022/12/07 07:27:38;;;;;;;26.60;19.80;;;4.20;99.90;;;;;;5000868;28;20192;-87
2022/12/07 07:30:04;;;;;;;25.00;17.90;;;4.10;99.90;;;;;;5018300;28;20179;-88
2022/12/07 07:32:30;;;;;;;22.67;17.27;;;4.10;99.90;;;;;;5017561;28;20250;-86
2022/12/07 07:34:56;;;;;;;28.00;17.50;;;4.20;99.90;;;;;;5035314;28;20225;-87
2022/12/07 07:37:21;;;;;;;23.23;16.57;;;4.10;99.90;;;;;;5035219;28;20182;-88
2022/12/07 07:39:47;;;;;;;24.33;15.40;;;4.10;99.90;;;;;;5017207;28;20206;-87
2022/12/07 07:42:13;;;;;;;22.80;14.87;;;4.10;99.90;;;;;;5035460;28;20197;-88
2022/12/07 07:44:38;;;;;;;24.07;16.90;;;4.10;99.90;;;;;;5017795;28;20193;-88
2022/12/07 07:47:04;;;;;;;18.50;15.30;;;4.00;99.90;;;;;;5001589;28;20650;-88
2022/12/07 07:49:29;;;;;;;28.30;17.07;;;4.00;99.90;;;;;;5017846;28;20217;-87
2022/12/07 07:51:55;;;;;;;25.63;16.30;;;3.90;99.90;;;;;;5035437;28;20536;-87
2022/12/07 07:54:21;;;;;;;25.33;19.30;;;3.90;99.90;;;;;;5001538;28;20179;-87
2022/12/07 07:56:46;;;;;;;22.30;16.60;;;3.90;99.90;;;;;;5017516;28;20186;-88
2022/12/07 07:59:12;;;;;;;20.53;15.20;;;3.90;99.90;;;;;;5035111;28;20210;-88
2022/12/07 08:01:37;;;;;;;21.60;16.63;;;3.90;99.90;;;;;;5000772;28;20198;-88
2022/12/07 08:04:03;;;;;;;27.53;15.97;;;3.90;99.90;;;;;;5017276;28;20713;-88
2022/12/07 08:06:29;;;;;;;27.97;16.40;;;3.90;99.90;;;;;;5035047;28;20197;-87
2022/12/07 08:08:54;;;;;;;25.60;15.93;;;3.90;99.90;;;;;;4997197;28;20630;-87
2022/12/07 08:11:20;;;;;;;19.90;15.70;;;3.90;99.90;;;;;;5014261;28;20205;-88
2022/12/07 08:13:46;;;;;;;17.37;14.40;;;4.00;99.90;;;;;;5015063;28;20189;-88
2022/12/07 08:16:12;;;;;;;23.20;15.80;;;4.10;99.90;;;;;;5014080;28;20213;-88
2022/12/07 08:18:40;;;;;;;25.85;18.13;;;4.10;99.90;;;;;;5014476;28;20186;-87
2022/12/07 08:21:06;;;;;;;25.63;15.68;;;4.20;99.90;;;;;;5014959;28;20241;-88
2022/12/07 08:23:33;;;;;;;19.15;15.07;;;4.10;99.90;;;;;;5014015;28;20175;-88
2022/12/07 08:26:11;;;;;;;29.48;17.42;;;4.10;99.90;;;;;;5013712;28;20185;-88
2022/12/07 08:28:37;;;;;;;20.80;16.70;;;4.20;99.90;;;;;;5013454;28;20293;-87
2022/12/07 08:31:12;;;;;;;24.40;17.73;;;4.30;99.90;;;;;;5015062;28;20258;-88
2022/12/07 08:33:38;;;;;;;21.98;14.80;;;4.20;99.90;;;;;;5015211;28;20242;-87
2022/12/07 08:36:07;;;;;;;22.75;16.02;;;4.40;99.90;;;;;;5015253;28;20178;-87
2022/12/07 08:38:34;;;;;;;24.55;16.63;;;4.40;99.90;;;;;;5014928;28;20185;-88
2022/12/07 08:41:00;;;;;;;22.98;16.48;;;4.50;99.90;;;;;;5013591;28;20197;-88
2022/12/07 08:43:26;;;;;;;23.30;15.63;;;4.50;99.90;;;;;;5013480;28;20174;-88
2022/12/07 08:46:11;;;;;;;20.93;15.50;;;4.70;99.90;;;;;;4980683;28;20183;-88
2022/12/07 08:48:43;;;;;;;22.17;16.30;;;4.70;99.90;;;;;;5013408;28;20210;-86
2022/12/07 08:51:09;;;;;;;22.42;17.73;;;4.60;99.90;;;;;;5014875;28;20163;-87
2022/12/07 08:53:36;;;;;;;23.23;17.40;;;4.70;99.90;;;;;;5013684;28;20182;-87
2022/12/07 08:56:02;;;;;;;25.60;17.88;;;4.70;99.90;;;;;;5013365;28;20548;-88
2022/12/07 08:58:28;;;;;;;24.90;16.07;;;4.70;99.90;;;;;;5014598;28;20218;-88
2022/12/07 09:00:53;;;;;;;25.47;15.83;;;4.80;99.90;;;;;;4997059;28;20429;-87
2022/12/07 09:03:19;;;;;;;27.70;19.10;;;4.90;99.90;;;;;;5013669;28;20654;-88
2022/12/07 09:05:45;;;;;;;21.10;17.40;;;5.00;99.90;;;;;;5013172;28;20226;-87
2022/12/07 09:08:10;;;;;;;28.87;17.03;;;5.00;99.90;;;;;;5013244;28;20235;-87
2022/12/07 09:10:36;;;;;;;24.27;16.00;;;5.00;99.90;;;;;;5013148;28;20206;-86
2022/12/07 09:13:02;;;;;;;25.43;16.47;;;5.00;99.90;;;;;;4996899;28;20189;-88
2022/12/07 09:15:29;;;;;;;23.90;17.10;;;5.20;99.90;;;;;;5014631;28;20267;-88
2022/12/07 09:17:55;;;;;;;25.00;16.33;;;5.30;99.90;;;;;;5014747;28;20206;-88
2022/12/07 09:20:20;;;;;;;21.87;16.30;;;5.40;99.90;;;;;;5014679;28;20179;-87
2022/12/07 09:22:46;;;;;;;23.20;18.30;;;5.50;99.90;;;;;;5017688;28;20410;-87
2022/12/07 09:25:12;;;;;;;24.30;18.00;;;5.40;99.90;;;;;;5017126;28;20892;-88
2022/12/07 09:27:37;;;;;;;30.63;16.30;;;5.40;99.90;;;;;;5016431;28;20190;-86
2022/12/07 09:30:04;;;;;;;21.43;15.07;;;5.40;99.90;;;;;;5017028;28;20183;-88
2022/12/07 09:32:30;;;;;;;26.25;18.00;;;5.40;99.90;;;;;;5016608;28;20188;-88
2022/12/07 09:34:56;;;;;;;28.17;16.70;;;5.40;99.90;;;;;;4983923;28;20657;-88
2022/12/07 09:37:21;;;;;;;23.83;17.00;;;5.40;99.90;;;;;;5016463;28;20183;-88
2022/12/07 09:39:47;;;;;;;23.93;15.60;;;5.50;99.90;;;;;;5017753;28;20633;-87
2022/12/07 09:42:35;;;;;;;26.17;18.53;;;5.50;99.90;;;;;;5016740;28;20456;-87
2022/12/07 09:45:02;;;;;;;21.42;14.70;;;5.50;99.90;;;;;;5017238;28;20225;-88
2022/12/07 09:47:28;;;;;;;26.75;16.95;;;5.50;99.90;;;;;;5000213;28;20569;-88
2022/12/07 09:50:05;;;;;;;22.88;13.63;;;5.50;99.90;;;;;;5017122;28;20236;-88
2022/12/07 09:52:31;;;;;;;25.05;15.90;;;5.50;99.90;;;;;;5017337;28;20168;-88
2022/12/07 09:54:57;;;;;;;21.13;14.27;;;5.40;99.90;;;;;;5017404;28;20261;-88
2022/12/07 09:57:31;;;;;;;23.10;15.60;;;5.50;99.90;;;;;;4999810;28;20813;-88
2022/12/07 10:00:06;;;;;;;18.65;12.45;;;5.60;99.90;;;;;;5017030;28;20249;-88
2022/12/07 10:02:45;;;;;;;18.17;12.88;;;5.60;99.90;;;;;;4999514;28;20232;-88
2022/12/07 10:05:16;;;;;;;23.77;14.98;;;5.60;99.90;;;;;;5017362;28;20319;-88
2022/12/07 10:07:42;;;;;;;21.80;11.50;;;5.60;99.90;;;;;;5015197;28;20227;-87
2022/12/07 10:10:17;;;;;;;21.00;13.33;;;5.80;99.90;;;;;;4999492;28;20187;-88
2022/12/07 10:13:04;;;;;;;16.88;11.15;;;5.90;99.90;;;;;;5016583;28;20402;-83
2022/12/07 10:15:48;;;;;;;22.42;12.40;;;6.00;99.90;;;;;;5016639;28;20188;-83
2022/12/07 10:18:27;;;;;;;16.20;10.75;;;6.10;99.90;;;;;;5016280;28;20550;-83
2022/12/07 10:21:08;;;;;;;19.67;10.35;;;6.20;99.90;;;;;;5017429;28;20171;-83
2022/12/07 10:23:35;;;;;;;20.92;10.90;;;6.10;99.90;;;;;;5015910;28;20190;-83
2022/12/07 10:26:41;;;;;;;19.50;11.15;;;6.20;99.90;;;;;;5017359;28;20268;-83
2022/12/07 10:29:12;;;;;;;19.23;11.68;;;6.20;99.90;;;;;;5017991;28;20210;-83
2022/12/07 10:31:39;;;;;;;17.83;11.63;;;6.40;99.90;;;;;;5015535;28;20179;-83
2022/12/07 10:34:37;;;;;;;16.35;10.70;;;6.40;99.90;;;;;;5017138;28;20202;-84
2022/12/07 10:37:12;;;;;;;12.32;9.65;;;6.60;99.90;;;;;;4983711;28;20218;-84
2022/12/07 10:39:45;;;;;;;20.25;11.27;;;6.50;99.90;;;;;;5016905;28;20182;-83
2022/12/07 10:42:23;;;;;;;14.23;10.65;;;6.60;99.90;;;;;;5015452;28;20181;-83
2022/12/07 10:44:50;;;;;;;17.30;10.93;;;6.60;99.90;;;;;;5015741;28;20551;-84
2022/12/07 10:47:31;;;;;;;16.83;10.68;;;6.60;99.90;;;;;;4999742;28;20654;-83
2022/12/07 10:50:32;;;;;;;9.90;8.43;;;6.80;99.90;;;;;;5016774;28;20166;-86
2022/12/07 10:53:04;;;;;;;25.48;9.15;;;6.80;99.90;;;;;;5015248;28;20224;-84
2022/12/07 10:55:48;;;;;;;15.77;8.07;;;6.90;99.90;;;;;;5015973;28;20178;-84
2022/12/07 10:58:22;;;;;;;13.07;7.68;;;7.50;99.90;;;;;;5017912;28;20247;-83
2022/12/07 11:01:05;;;;;;;14.20;8.73;;;;;;;;;;5017186;28;20264;-84
2022/12/07 11:03:52;;;;;;;11.25;8.07;;;7.90;99.90;;;;;;5016695;28;20173;-83
2022/12/07 11:06:23;;;;;;;15.35;8.27;;;7.90;99.90;;;;;;5015487;28;20181;-83
2022/12/07 11:09:21;;;;;;;17.50;8.98;;;8.00;99.90;;;;;;5043681;28;20229;-83
2022/12/07 11:12:03;;;;;;;12.98;6.95;;;8.20;99.90;;;;;;5053477;28;20244;-87
2022/12/07 11:14:43;;;;;;;11.15;6.80;;;7.80;99.90;;;;;;5035517;28;20185;-84
2022/12/07 11:17:19;;;;;;;12.80;7.60;;;7.80;99.90;;;;;;5036308;28;20540;-84
2022/12/07 11:20:12;;;;;;;11.35;7.00;;;7.90;99.90;;;;;;5038116;28;20189;-84
2022/12/07 11:23:01;;;;;;;12.10;7.53;;;7.80;99.90;;;;;;5056061;28;20565;-84
2022/12/07 11:25:30;;;;;;;11.02;8.07;;;7.80;99.90;;;;;;5029593;28;20248;-83
2022/12/07 11:28:10;;;;;;;18.42;9.57;;;7.80;99.90;;;;;;5055391;28;20217;-83
2022/12/07 11:30:54;;;;;;;12.60;8.63;;;7.50;99.90;;;;;;5055486;28;20510;-83
2022/12/07 11:33:34;;;;;;;18.48;9.15;;;7.10;99.90;;;;;;5055588;28;20690;-83
2022/12/07 11:36:43;;;;;;;28.60;10.43;;;6.90;99.90;;;;;;5037704;28;20303;-85
2022/12/07 11:39:21;;;;;;;12.05;9.43;;;6.90;99.90;;;;;;5055876;28;20169;-84
2022/12/07 11:41:54;;;;;;;27.23;11.13;;;6.70;99.90;;;;;;5055237;28;20168;-84
2022/12/07 11:44:29;;;;;;;15.88;11.75;;;6.80;99.90;;;;;;5054933;28;20165;-84
2022/12/07 11:47:22;;;;;;;16.27;11.57;;;6.80;99.90;;;;;;5055316;28;20312;-84
2022/12/07 11:49:58;;;;;;;17.45;10.27;;;6.80;99.90;;;;;;5055267;28;20201;-84
2022/12/07 11:52:53;;;;;;;15.98;11.50;;;6.60;99.90;;;;;;5055517;28;20176;-83
2022/12/07 11:55:59;;;;;;;19.13;11.07;;;6.50;99.90;;;;;;5007066;28;20630;-83
2022/12/07 11:58:33;;;;;;;14.63;10.07;;;6.50;99.90;;;;;;5054690;28;20189;-82
2022/12/07 12:01:17;;;;;;;12.02;9.55;;;6.50;99.90;;;;;;5054759;28;20176;-84
2022/12/07 12:04:25;;;;;;;10.82;8.73;;;6.40;99.90;;;;;;5055171;28;20534;-84
2022/12/07 12:06:51;;;;;;;20.40;10.77;;;6.30;99.90;;;;;;5018009;28;20200;-85
2022/12/07 12:09:32;;;;;;;14.03;8.67;;;6.30;99.90;;;;;;5037986;28;20205;-84
2022/12/07 12:12:28;;;;;;;12.65;9.32;;;6.30;99.90;;;;;;5037692;28;20481;-84
2022/12/07 12:15:04;;;;;;;13.43;8.95;;;6.30;99.90;;;;;;5037161;28;20611;-84
2022/12/07 12:17:55;;;;;;;16.58;9.73;;;6.30;99.90;;;;;;5035000;28;20165;-84
2022/12/07 12:20:29;;;;;;;14.35;9.38;;;6.20;99.90;;;;;;5017422;28;20589;-84
2022/12/07 12:23:20;;;;;;;15.77;9.45;;;6.20;99.90;;;;;;5035061;28;20176;-83
2022/12/07 12:25:55;;;;;;;20.67;12.55;;;6.10;99.90;;;;;;5004018;28;20521;-84
2022/12/07 12:28:40;;;;;;;16.75;9.32;;;6.10;99.90;;;;;;5034803;28;20217;-84
2022/12/07 12:31:14;;;;;;;16.00;10.80;;;6.20;99.90;;;;;;5034823;28;20165;-83
2022/12/07 12:33:55;;;;;;;17.42;11.05;;;6.20;99.90;;;;;;5035899;28;20682;-84
2022/12/07 12:36:46;;;;;;;18.83;12.32;;;6.20;99.90;;;;;;5037122;28;20180;-84
2022/12/07 12:39:18;;;;;;;15.73;10.05;;;6.20;99.90;;;;;;5034910;28;20182;-84
2022/12/07 12:44:15;;;;;;;14.38;9.23;;;6.30;99.90;;;;;;5034966;28;20180;-84
2022/12/07 12:46:49;;;;;;;13.98;7.95;;;6.30;99.90;;;;;;5035015;28;20532;-84
2022/12/07 12:49:33;;;;;;;13.93;9.52;;;6.30;99.90;;;;;;5017592;28;20670;-84
2022/12/07 12:52:20;;;;;;;14.15;9.52;;;6.30;99.90;;;;;;5034652;28;20179;-85
2022/12/07 12:55:21;;;;;;;11.10;7.93;;;6.40;99.90;;;;;;5034645;28;20181;-83
2022/12/07 12:58:07;;;;;;;14.60;8.35;;;6.40;99.90;;;;;;5018584;28;20198;-84
2022/12/07 13:00:33;;;;;;;13.75;8.13;;;6.40;99.90;;;;;;5041713;28;20178;-83
2022/12/07 13:02:59;;;;;;;13.27;7.85;;;6.40;99.90;;;;;;5023087;28;20226;-83
2022/12/07 13:05:30;;;;;;;17.77;8.50;;;6.50;99.90;;;;;;5007576;28;20615;-83